Latest Weather Observations for Mackay Airport

IDQ60801

Issued at 2:52 pm EST Thursday 23 January 2020 (issued every 10 minutes, with the page automatically refreshed every 10 minutes)

About weather observations | Map of weather stations | Latest weather observations for QLD | Other Formats
Station Details ID: 033045 Name: MACKAY AERO Lat: -21.17 Lon: 149.18 Height: 4.7 m
Data from the previous 72 hours. | See also: Recent months at Mackay Airport
Date/Time
EST
Temp
°C
App
Temp
°C
Dew
Point
°C
Rel
Hum
%
Delta-T
°C
Wind Press
QNH
hPa
Press
MSL
hPa
Rain since
9am
mm
Dir  Spd
km/h
Gust
km/h
Spd
kts
Gust
kts
23/02:30pm 31.6 32.1 22.6 59 6.2 ENE 24 30 13 16 1008.9 1008.9 0.0
23/02:00pm 32.8 33.5 23.7 58 6.3 ENE 26 32 14 17 1009.2 1009.2 0.0
23/01:30pm 31.4 32.2 23.8 64 5.3 ENE 26 33 14 18 1009.6 1009.6 0.0
23/01:00pm 32.5 33.8 24.0 61 5.9 ENE 24 30 13 16 1009.9 1009.9 0.0
23/12:30pm 32.6 34.7 24.1 61 5.9 NE 20 32 11 17 1010.6 1010.6 0.0
23/12:00pm 32.3 33.5 22.1 55 6.9 NNE 19 26 10 14 1010.9 1010.9 0.0
23/11:30am 31.6 32.9 23.4 61 5.7 NE 22 30 12 16 1011.3 1011.3 0.0
23/11:00am 32.4 35.1 24.2 62 5.7 NE 17 24 9 13 1011.6 1011.6 0.0
23/10:30am 30.8 32.7 22.7 62 5.5 NNE 17 22 9 12 1011.9 1011.9 0.0
23/10:00am 31.6 33.4 23.2 61 5.8 NNE 19 26 10 14 1012.1 1012.1 0.0
23/09:30am 31.4 33.3 22.7 60 6.0 NNE 17 22 9 12 1012.4 1012.4 0.0
23/09:00am 31.3 33.6 23.4 63 5.5 NNE 17 22 9 12 1012.5 1012.5 0.0
23/08:30am 29.4 34.2 24.5 75 3.4 ENE 7 11 4 6 1012.6 1012.6 0.0
23/08:00am 29.1 35.1 24.9 78 2.9 SSE 2 7 1 4 1012.3 1012.3 0.0
23/07:30am 27.5 33.0 24.1 82 2.3 S 2 6 1 3 1012.1 1012.1 0.0
23/07:00am 26.7 31.5 24.2 86 1.7 S 6 7 3 4 1011.7 1011.7 0.0
23/06:30am 25.8 30.5 24.0 90 1.2 WSW 6 6 3 3 1011.5 1011.5 0.0
23/06:00am 24.9 29.0 23.3 91 1.1 WSW 7 9 4 5 1011.2 1011.2 0.0
23/05:30am 24.6 28.2 23.0 91 1.1 WSW 9 11 5 6 1010.9 1010.9 0.0
23/05:00am 24.8 28.6 22.7 88 1.4 NW 7 7 4 4 1010.5 1010.5 0.0
23/04:30am 25.7 29.9 23.2 86 1.7 NW 6 6 3 3 1010.4 1010.4 0.0
23/04:00am 26.1 30.0 23.0 83 2.1 N 7 11 4 6 1010.3 1010.3 0.0
23/03:30am 27.0 30.6 23.7 82 2.3 NNE 11 13 6 7 1010.1 1010.1 0.0
23/03:00am 27.1 30.9 24.0 83 2.1 NNE 11 15 6 8 1010.1 1010.1 0.0
23/02:30am 26.9 31.0 24.0 84 2.0 N 9 11 5 6 1010.1 1010.1 0.0
23/02:00am 26.8 30.8 23.7 83 2.1 NNE 9 11 5 6 1010.3 1010.3 0.0
23/01:30am 26.9 30.7 23.4 81 2.4 N 9 11 5 6 1010.5 1010.5 0.0
23/01:00am 27.6 30.7 23.6 79 2.7 NNE 13 17 7 9 1010.5 1010.5 0.0
23/12:30am 27.4 31.0 23.8 81 2.5 NNE 11 15 6 8 1011.0 1011.0 0.0
23/12:00am 27.7 31.0 23.9 80 2.6 NNE 13 15 7 8 1011.3 1011.3 0.0
 
Date/Time
EST
Temp
°C
App
Temp
°C
Dew
Point
°C
Rel
Hum
%
Delta-T
°C
Wind Press
QNH
hPa
Press
MSL
hPa
Rain since
9am
mm
Dir  Spd
km/h
Gust
km/h
Spd
kts
Gust
kts
22/11:30pm 27.8 31.6 24.0 80 2.6 NNE 11 13 6 7 1011.6 1011.6 0.0
22/11:00pm 28.0 31.8 24.0 79 2.8 NNE 11 15 6 8 1011.8 1011.8 0.0
22/10:30pm 28.2 31.1 23.8 77 3.0 NNE 15 20 8 11 1011.8 1011.8 0.0
22/10:00pm 28.3 31.1 23.7 76 3.2 NNE 15 19 8 10 1011.4 1011.4 0.0
22/09:30pm 28.3 31.2 23.9 77 3.0 NNE 15 19 8 10 1010.9 1010.9 0.0
22/09:00pm 28.3 31.6 23.9 77 3.0 NNE 13 19 7 10 1010.7 1010.7 0.0
22/08:30pm 28.2 30.6 23.6 76 3.2 NNE 17 22 9 12 1010.4 1010.4 0.0
22/08:00pm 28.3 31.2 23.2 74 3.5 NNE 13 20 7 11 1010.2 1010.2 0.0
22/07:30pm 28.5 31.0 23.2 73 3.6 NNE 15 20 8 11 1009.8 1009.8 0.0
22/07:00pm 28.6 30.8 23.3 73 3.6 NE 17 22 9 12 1009.3 1009.3 0.0
22/06:30pm 28.8 30.7 23.7 74 3.5 NNE 20 26 11 14 1009.0 1009.0 0.0
22/06:00pm 29.2 30.5 23.4 71 4.0 NNE 22 28 12 15 1008.6 1008.6 0.0
22/05:30pm 29.9 31.5 23.3 67 4.5 NE 20 26 11 14 1008.5 1008.5 0.0
22/05:00pm 30.5 31.9 22.9 64 5.2 NE 20 26 11 14 1008.4 1008.4 0.0
22/04:30pm 30.8 32.6 23.5 65 5.0 NE 20 28 11 15 1008.5 1008.5 0.0
22/04:00pm 31.1 32.3 23.2 63 5.4 NE 22 28 12 15 1008.6 1008.6 0.0
22/03:30pm 31.6 32.8 23.2 61 5.8 NE 22 30 12 16 1008.8 1008.8 0.0
22/03:00pm 31.0 32.1 23.6 64 5.1 NE 24 32 13 17 1009.0 1009.0 0.0
22/02:30pm 31.9 33.0 23.7 62 5.7 NE 24 33 13 18 1009.7 1009.7 0.0
22/02:00pm 33.3 34.9 24.5 60 6.2 ENE 24 33 13 18 1009.7 1009.7 0.0
22/01:30pm 33.2 34.0 23.2 55 6.9 NE 24 33 13 18 1010.0 1010.0 0.0
22/01:00pm 32.5 33.1 21.4 52 7.5 N 20 30 11 16 1010.3 1010.3 0.0
22/12:30pm 32.6 33.9 22.4 55 7.0 N 19 28 10 15 1010.8 1010.8 0.0
22/12:00pm 32.2 33.5 21.7 54 7.1 NNE 17 30 9 16 1011.3 1011.3 0.0
22/11:30am 32.8 34.2 22.6 55 7.0 N 19 24 10 13 1011.4 1011.4 0.0
22/11:00am 32.0 33.2 22.1 55 6.7 N 19 28 10 15 1011.7 1011.7 0.0
22/10:30am 31.2 32.2 22.2 58 6.1 N 20 30 11 16 1012.0 1012.0 0.0
22/10:00am 31.5 33.8 22.8 60 6.0 N 15 20 8 11 1012.1 1012.1 0.0
22/09:30am 31.0 33.1 23.1 63 5.4 N 17 24 9 13 1012.1 1012.1 0.0
22/09:00am 30.6 31.1 21.9 59 5.9 N 22 30 12 16 1012.0 1012.0 0.0
22/08:30am 29.1 30.5 22.8 69 4.3 N 20 26 11 14 1011.8 1011.8 0.0
22/08:00am 29.3 32.0 23.5 71 4.0 NNW 15 20 8 11 1011.6 1011.6 0.0
22/07:30am 29.9 33.2 23.8 70 4.2 N 13 20 7 11 1011.5 1011.5 0.0
22/07:00am 28.4 32.0 23.8 76 3.2 N 11 15 6 8 1011.2 1011.2 0.0
22/06:30am 26.4 31.7 23.7 85 1.9 NNW 2 6 1 3 1010.8 1010.8 0.0
22/06:00am 25.5 29.3 22.8 85 1.8 N 7 9 4 5 1010.5 1010.5 0.0
22/05:30am 25.7 29.6 23.0 85 1.8 N 7 7 4 4 1010.0 1010.0 0.0
22/05:00am 25.6 29.5 22.9 85 1.8 N 7 9 4 5 1009.7 1009.7 0.0
22/04:30am 25.9 29.6 23.2 85 1.8 N 9 11 5 6 1009.6 1009.6 0.0
22/04:00am 26.4 30.2 23.5 84 2.0 N 9 11 5 6 1009.4 1009.4 0.0
22/03:30am 27.2 30.9 23.9 82 2.3 N 11 15 6 8 1009.2 1009.2 0.0
22/03:00am 27.1 31.1 23.8 82 2.3 N 9 13 5 7 1008.9 1008.9 0.0
22/02:30am 26.9 30.7 23.4 81 2.4 N 9 11 5 6 1009.3 1009.3 0.0
22/02:00am 27.3 31.1 23.5 80 2.6 N 9 13 5 7 1009.4 1009.4 0.0
22/01:30am 27.3 31.3 23.7 81 2.5 N 9 13 5 7 1009.4 1009.4 0.0
22/01:00am 27.7 31.3 23.7 79 2.8 NNE 11 15 6 8 1009.7 1009.7 0.0
22/12:30am 27.8 31.7 23.6 78 2.9 NNE 9 11 5 6 1010.1 1010.1 0.0
22/12:00am 27.8 32.2 23.8 79 2.8 N 7 9 4 5 1010.4 1010.4 0.0
 
Date/Time
EST
Temp
°C
App
Temp
°C
Dew
Point
°C
Rel
Hum
%
Delta-T
°C
Wind Press
QNH
hPa
Press
MSL
hPa
Rain since
9am
mm
Dir  Spd
km/h
Gust
km/h
Spd
kts
Gust
kts
21/11:30pm 27.7 31.9 24.1 81 2.5 N 9 13 5 7 1010.5 1010.5 0.0
21/11:00pm 27.4 31.4 23.8 81 2.5 N 9 13 5 7 1010.6 1010.6 0.0
21/10:30pm 27.7 32.0 23.7 79 2.7 NNE 7 9 4 5 1010.5 1010.5 0.0
21/10:00pm 27.7 32.1 23.5 78 2.9 NNE 6 7 3 4 1010.5 1010.5 0.0
21/09:30pm 28.0 32.3 23.6 77 3.0 NNE 7 9 4 5 1010.2 1010.2 0.0
21/09:00pm 28.1 32.1 23.7 77 3.0 NNE 9 13 5 7 1010.0 1010.0 0.0
21/08:30pm 28.0 31.5 23.6 77 3.0 N 11 15 6 8 1009.6 1009.6 0.0
21/08:00pm 28.0 31.5 23.6 77 3.0 N 11 15 6 8 1009.4 1009.4 0.0
21/07:30pm 28.1 31.4 23.2 74 3.3 N 11 17 6 9 1009.5 1009.5 0.0
21/07:00pm 28.6 31.7 23.5 74 3.5 N 13 20 7 11 1009.3 1009.3 0.0
21/06:30pm 28.8 30.6 23.5 73 3.6 N 20 26 11 14 1008.9 1008.9 0.0
21/06:00pm 29.2 31.8 23.9 73 3.7 NNE 17 24 9 13 1008.6 1008.6 0.0
21/05:30pm 29.4 31.5 23.8 72 3.9 NNE 19 24 10 13 1008.2 1008.2 0.0
21/05:00pm 29.7 31.8 24.1 72 3.9 N 20 26 11 14 1008.2 1008.2 0.0
21/04:30pm 30.2 31.2 22.1 62 5.5 N 20 26 11 14 1008.2 1008.2 0.0
21/04:00pm 32.2 32.1 20.8 51 7.6 NNE 22 30 12 16 1007.9 1007.9 0.0
21/03:30pm 31.8 32.3 21.9 55 6.7 NE 22 32 12 17 1008.0 1008.0 0.0
21/03:00pm 32.2 33.1 22.6 57 6.6 NE 22 32 12 17 1008.1 1008.1 0.0
21/02:30pm 32.8 34.1 23.4 57 6.5 NE 22 30 12 16 1008.5 1008.5 0.0
21/02:00pm 33.1 35.3 24.8 61 5.9 NE 22 32 12 17 1008.5 1008.5 0.0
21/01:30pm 33.0 34.1 22.4 53 7.3 NE 20 32 11 17 1008.9 1008.9 0.0
21/01:00pm 32.9 34.7 23.5 57 6.5 NNE 20 28 11 15 1009.3 1009.3 0.0
21/12:30pm 32.8 34.9 23.7 58 6.3 NNE 19 28 10 15 1009.6 1009.6 0.0
21/12:00pm 32.4 34.8 23.6 59 6.1 NNE 17 24 9 13 1010.0 1010.0 0.0
21/11:30am 31.7 34.4 25.1 68 4.7 NE 20 28 11 15 1010.5 1010.5 0.0
21/11:00am 32.0 34.2 24.8 65 5.1 ENE 22 30 12 16 1010.7 1010.7 0.0
21/10:30am 29.8 33.8 25.1 76 3.3 ESE 13 19 7 10 1011.0 1011.0 0.0
21/10:00am 30.3 33.9 24.4 70 4.1 E 13 17 7 9 1011.2 1011.2 0.0
21/09:30am 29.6 34.0 23.8 71 4.0 NE 7 15 4 8 1011.1 1011.1 0.0
21/09:00am 29.4 33.9 24.0 72 3.7 NNW 7 11 4 6 1011.2 1011.2 1.6
21/08:30am 28.8 33.3 23.7 74 3.5 W 6 7 3 4 1010.9 1010.9 1.6
21/08:00am 27.5 31.1 22.4 73 3.4 W 7 11 4 6 1010.6 1010.6 1.6
21/07:30am 26.2 29.7 22.9 82 2.2 WSW 9 11 5 6 1010.6 1010.6 1.6
21/07:00am 24.4 28.1 22.3 88 1.4 WSW 6 7 3 4 1010.4 1010.4 1.6
21/06:30am 23.7 26.8 22.1 91 1.1 SW 9 13 5 7 1010.1 1010.1 1.6
21/06:00am 23.4 26.0 22.0 92 0.9 SW 11 13 6 7 1009.7 1009.7 1.6
21/05:30am 23.2 26.6 21.6 91 1.1 WSW 6 7 3 4 1008.9 1008.9 1.6
21/05:00am 23.3 26.5 21.6 90 1.1 WSW 7 9 4 5 1008.5 1008.5 1.6
21/04:30am 23.2 25.6 21.6 91 1.1 WSW 11 11 6 6 1008.2 1008.2 1.6
21/04:00am 23.2 25.7 21.8 92 0.9 WSW 11 11 6 6 1007.9 1007.9 1.6
21/03:30am 23.3 25.9 21.9 92 0.9 WSW 11 13 6 7 1007.7 1007.7 1.6
21/03:00am 23.3 26.5 21.7 91 1.1 N 7 9 4 5 1007.5 1007.5 1.6
21/02:30am 23.5 27.0 21.8 90 1.1 NNW 6 11 3 6 1007.2 1007.2 1.6
21/02:00am 23.4 26.5 21.5 89 1.3 W 7 9 4 5 1007.4 1007.4 1.6
21/01:30am 23.6 26.1 21.7 89 1.3 NW 11 13 6 7 1007.5 1007.5 1.6
21/01:00am 23.5 26.4 21.8 90 1.1 SW 9 11 5 6 1007.6 1007.6 1.6
21/12:30am 24.0 27.5 21.9 88 1.4 SW 6 7 3 4 1008.0 1008.0 1.6
21/12:00am 24.1 28.5 21.4 85 1.8 CALM 0 0 0 0 1008.7 1008.7 1.6
 
Date/Time
EST
Temp
°C
App
Temp
°C
Dew
Point
°C
Rel
Hum
%
Delta-T
°C
Wind Press
QNH
hPa
Press
MSL
hPa
Rain since
9am
mm
Dir  Spd
km/h
Gust
km/h
Spd
kts
Gust
kts
20/11:30pm 23.7 26.9 21.2 86 1.6 SW 6 7 3 4 1009.3 1009.3 1.6
20/11:00pm 23.6 26.5 21.7 89 1.3 WSW 9 13 5 7 1010.0 1010.0 1.6
20/10:30pm 23.9 26.2 22.0 89 1.3 WSW 13 17 7 9 1011.0 1011.0 1.4
20/10:00pm 24.0 25.6 22.1 89 1.3 W 17 22 9 12 1011.4 1011.4 1.4
20/09:30pm 23.9 24.8 21.6 87 1.5 W 19 24 10 13 1011.3 1011.3 1.2
20/09:00pm 24.0 24.1 21.9 88 1.4 WNW 24 33 13 18 1010.9 1010.9 0.8
20/08:30pm 26.6 30.9 24.3 87 1.6 WNW 9 13 5 7 1009.8 1009.8 0.4
20/08:00pm 28.3 32.7 25.1 83 2.2 N 11 13 6 7 1009.3 1009.3 0.0
20/07:30pm 28.6 33.6 24.8 80 2.7 N 7 9 4 5 1009.5 1009.5 0.0
20/07:00pm 28.7 32.9 24.7 79 2.8 N 11 15 6 8 1008.5 1008.5 0.0
20/06:30pm 28.9 32.3 24.7 78 2.9 NNE 15 19 8 10 1007.7 1007.7 0.0
20/06:25pm 28.9 32.3 24.7 78 2.9 NNE 15 22 8 12 1007.4 1007.4 0.0
20/06:00pm 29.0 31.6 24.6 77 3.1 NNE 19 24 10 13 1006.3 1006.3 0.0
20/05:39pm 29.1 32.3 24.9 78 2.9 NNE 17 22 9 12 1006.1 1006.1 0.0
20/05:30pm 29.1 31.7 24.9 78 2.9 NNE 20 28 11 15 1005.8 1005.8 0.0
20/05:00pm 29.1 31.8 24.7 77 3.1 NNE 19 24 10 13 1005.4 1005.4 0.0
20/04:30pm 29.6 31.6 24.5 74 3.6 NNE 22 30 12 16 1005.2 1005.2 0.0
20/04:00pm 30.0 32.3 24.4 72 3.9 NE 20 28 11 15 1005.2 1005.2 0.0
20/03:30pm 31.1 33.0 25.0 70 4.3 NNE 24 30 13 16 1005.6 1005.6 0.0
20/03:00pm 32.2 34.0 24.8 65 5.2 NE 24 30 13 16 1005.7 1005.7 0.0

Other formats

Comma delimited format used in spreadsheet applications
http://www.bom.gov.au/fwo/IDQ60801/IDQ60801.95367.axf

JavaScript Object Notation format (JSON) in row-major order
http://www.bom.gov.au/fwo/IDQ60801/IDQ60801.95367.json

Data quality

Most of these data are generated automatically and are frequently updated. Quality checks on data are not normally performed. It is possible for incorrect values to appear. Refer to information at About Latest Weather Observations and please check the disclaimer before using these data.